Aurora State Airport Aurora US
ICAO: KUAO
IATA: UAO
Category: Medium
Scheduled Services: No

Elevation: 200 ft
TransAlt. 18000 ft.

Airport Communications:
PORTLAND APP/DEP:126
ASOS:118.525
PORTLAND CLNC DEL:119.95
CTAF/UNICOM:122.7

KUAO Zoom In..

Runways:

(A) RW 17 length 5004 ft width 100 ft
LOC 111.15 / hdg 169

(B) RW 35 length 5004 ft width 100 ft
LOC 111.15 / hdg 349

Location; KUAO
Day. 14 / Time. 13.53 Zulu
* Altimeter: 29.91
* Temperature: 15° c. 59°f.
* Wind from: 000° Speed 00 kn.
Dewpoint: 12° c.
Visibility: 6 Statute Miles.
Clouds: Clear (automated report).
Conditions: Smoke.

KUAO 141353Z 00000KT 6SM FU CLR 15/12 A2991 RMK AO2 SLP126 T01500122


Wind - Calm.

 
 
jpsmedia.com for Web Design worldairports.se 2018   terms of use